createdAt,value
2019-03-17T00:04:50.975Z,75.3
2019-03-17T00:09:50.987Z,75.7
2019-03-17T00:14:51.004Z,75.9
2019-03-17T00:19:50.991Z,75.9
2019-03-17T00:24:50.977Z,75.9
2019-03-17T00:29:50.998Z,75.8
2019-03-17T00:34:51.368Z,74.8
2019-03-17T00:39:50.987Z,72.6
2019-03-17T00:44:50.946Z,73
2019-03-17T00:49:51.107Z,73.5
2019-03-17T00:54:50.933Z,73.9
2019-03-17T00:59:50.931Z,73.9
2019-03-17T01:04:56.836Z,74.1
2019-03-17T01:09:50.965Z,74.1
2019-03-17T01:14:50.934Z,74
2019-03-17T01:19:50.947Z,72
2019-03-17T01:24:50.908Z,72.5
2019-03-17T01:29:50.945Z,73
2019-03-17T01:34:50.899Z,73.3
2019-03-17T01:39:50.923Z,73.5
2019-03-17T01:44:50.900Z,73.7
2019-03-17T01:49:50.909Z,73.7
2019-03-17T01:54:50.866Z,73.6
2019-03-17T01:59:50.851Z,72.4
2019-03-17T02:04:50.861Z,71.2
2019-03-17T02:09:50.929Z,72.2
2019-03-17T02:14:50.844Z,72.5
2019-03-17T02:19:50.859Z,72.6
2019-03-17T02:24:50.822Z,72.6
2019-03-17T02:29:50.866Z,72.7
2019-03-17T02:34:50.850Z,72.8
2019-03-17T02:39:50.850Z,72.7
2019-03-17T02:44:50.822Z,72.7
2019-03-17T02:49:50.835Z,71.5
2019-03-17T02:54:50.937Z,70.6
2019-03-17T02:59:50.791Z,71.4
2019-03-17T03:04:50.819Z,71.7
2019-03-17T03:09:50.840Z,71.8
2019-03-17T03:14:50.842Z,71.9
2019-03-17T03:19:50.814Z,72
2019-03-17T03:24:50.796Z,71.9
2019-03-17T03:29:50.808Z,71.8
2019-03-17T03:34:50.830Z,69.7
2019-03-17T03:39:50.790Z,69
2019-03-17T03:44:50.722Z,70.2
2019-03-17T03:49:50.746Z,70.3
2019-03-17T03:54:50.819Z,70.5
2019-03-17T03:59:50.767Z,70.5
2019-03-17T04:04:50.727Z,70.5
2019-03-17T04:09:50.769Z,70.6
2019-03-17T04:14:50.738Z,70.6
2019-03-17T04:19:50.742Z,70.4
2019-03-17T04:24:50.769Z,70.5
2019-03-17T04:29:50.706Z,70.2
2019-03-17T04:34:50.714Z,68.1
2019-03-17T04:39:50.685Z,67.9
2019-03-17T04:44:50.681Z,69
2019-03-17T04:49:50.774Z,69.1
2019-03-17T04:54:50.769Z,70
2019-03-17T04:59:50.737Z,69.2
2019-03-17T05:04:50.663Z,69.3
2019-03-17T05:09:50.669Z,69.3
2019-03-17T05:14:50.666Z,69.2
2019-03-17T05:19:50.654Z,69.2
2019-03-17T05:24:50.690Z,67.5
2019-03-17T05:29:50.615Z,66.6
2019-03-17T05:34:50.606Z,68.1
2019-03-17T05:39:50.645Z,67.7
2019-03-17T05:44:50.620Z,68
2019-03-17T05:49:50.626Z,68.2
2019-03-17T05:54:50.608Z,68
2019-03-17T05:59:50.643Z,68.1
2019-03-17T06:04:50.631Z,68.1
2019-03-17T06:09:50.576Z,68.2
2019-03-17T06:14:50.708Z,68
2019-03-17T06:19:50.584Z,68
2019-03-17T06:24:51.645Z,68.1
2019-03-17T06:29:50.769Z,71
2019-03-17T06:34:50.592Z,72
2019-03-17T06:39:50.594Z,70.3
2019-03-17T06:44:50.578Z,66.4
2019-03-17T06:49:50.574Z,64.4
2019-03-17T06:54:50.518Z,65.2
2019-03-17T06:59:50.620Z,65.8
2019-03-17T07:04:50.540Z,65.9
2019-03-17T07:09:50.510Z,66.5
2019-03-17T07:14:50.641Z,66
2019-03-17T07:19:50.510Z,66
2019-03-17T07:24:50.504Z,66
2019-03-17T07:29:50.507Z,65.8
2019-03-17T07:34:50.490Z,65.7
2019-03-17T07:39:50.494Z,65.6
2019-03-17T07:44:50.513Z,66.2
2019-03-17T07:49:50.494Z,65.4
2019-03-17T07:54:50.475Z,65.2
2019-03-17T07:59:50.475Z,65.1
2019-03-17T08:04:50.524Z,65
2019-03-17T08:09:50.476Z,64.9
2019-03-17T08:14:50.502Z,65
2019-03-17T08:19:50.484Z,64.5
2019-03-17T08:24:50.453Z,64.6
2019-03-17T08:29:50.454Z,64.2
2019-03-17T08:34:50.427Z,64.9
2019-03-17T08:39:50.407Z,63.6
2019-03-17T08:44:50.425Z,64.5
2019-03-17T08:49:50.456Z,63.6
2019-03-17T08:54:50.418Z,63.5
2019-03-17T08:59:50.495Z,63.2
2019-03-17T09:04:50.534Z,63
2019-03-17T09:09:50.395Z,62.6
2019-03-17T09:14:50.365Z,62.7
2019-03-17T09:19:50.415Z,62.3
2019-03-17T09:24:50.391Z,62.3
2019-03-17T09:29:50.404Z,61.9
2019-03-17T09:34:50.400Z,66.3
2019-03-17T09:39:50.359Z,65
2019-03-17T09:44:50.340Z,62.9
2019-03-17T09:49:50.340Z,63.7
2019-03-17T09:54:50.324Z,68.1
2019-03-17T09:59:51.318Z,66.6
2019-03-17T10:04:50.337Z,64.7
2019-03-17T10:09:50.337Z,63.6
2019-03-17T10:14:50.322Z,63.3
2019-03-17T10:19:50.318Z,62.6
2019-03-17T10:24:50.335Z,62.4
2019-03-17T10:29:50.366Z,61.7
2019-03-17T10:34:50.295Z,60.3
2019-03-17T10:39:50.372Z,75.3
2019-03-17T10:44:50.357Z,72.3
2019-03-17T10:49:50.265Z,65.8
2019-03-17T10:54:50.290Z,60.4
2019-03-17T10:59:50.292Z,60
2019-03-17T11:04:50.265Z,59.2
2019-03-17T11:09:50.283Z,57.8
2019-03-17T11:14:50.274Z,56.8
2019-03-17T11:19:50.307Z,56.9
2019-03-17T11:24:51.828Z,60.7
2019-03-17T11:29:50.223Z,58
2019-03-17T11:34:50.265Z,55.9
2019-03-17T11:39:50.256Z,53.8
2019-03-17T11:44:50.222Z,52.1
2019-03-17T11:49:50.210Z,50.5
2019-03-17T11:54:50.233Z,50.1
2019-03-17T11:59:50.192Z,51.6
2019-03-17T12:04:50.204Z,49.7
2019-03-17T12:09:50.812Z,48.8
2019-03-17T12:14:50.260Z,49.2
2019-03-17T12:19:50.202Z,48.8
2019-03-17T12:24:51.405Z,50.5
2019-03-17T12:29:50.278Z,48.3
2019-03-17T12:34:50.215Z,48.3
2019-03-17T12:40:03.598Z,48.4
2019-03-17T12:44:50.178Z,47.2
2019-03-17T12:49:50.173Z,47.3
2019-03-17T12:54:50.174Z,46.8
2019-03-17T12:59:50.203Z,46.7
2019-03-17T13:04:50.153Z,46.9
2019-03-17T13:09:50.169Z,46.4
2019-03-17T13:14:50.178Z,45.7
2019-03-17T13:19:50.161Z,47.6
2019-03-17T13:24:50.208Z,45.1
2019-03-17T13:29:50.166Z,45.1
2019-03-17T13:34:50.107Z,44.2
2019-03-17T13:39:50.104Z,42.7
2019-03-17T13:44:50.132Z,48.5
2019-03-17T13:49:50.139Z,48.3
2019-03-17T13:54:50.097Z,53
2019-03-17T13:59:50.136Z,53.3
2019-03-17T14:04:50.123Z,54
2019-03-17T14:09:50.133Z,57
2019-03-17T14:14:50.105Z,62.1
2019-03-17T14:19:50.111Z,64.6
2019-03-17T14:24:50.159Z,59.2
2019-03-17T14:29:50.068Z,57.9
2019-03-17T14:34:50.074Z,64.3
2019-03-17T14:39:50.087Z,69
2019-03-17T14:44:50.076Z,71
2019-03-17T14:49:50.050Z,71.3
2019-03-17T14:54:50.086Z,72.3
2019-03-17T14:59:50.095Z,73.1
2019-03-17T15:04:50.027Z,72.9
2019-03-17T15:09:50.119Z,73.3
2019-03-17T15:14:50.054Z,74.6
2019-03-17T15:19:50.018Z,74
2019-03-17T15:24:50.086Z,75.3
2019-03-17T15:29:50.027Z,75.8
2019-03-17T15:34:50.037Z,76.8
2019-03-17T15:39:50.011Z,77.1
2019-03-17T15:44:50.021Z,77.8
2019-03-17T15:49:50.037Z,77.8
2019-03-17T15:54:50.048Z,79.1
2019-03-17T15:59:49.986Z,80.9
2019-03-17T16:04:49.983Z,79.8
2019-03-17T16:14:50.108Z,81.8
2019-03-17T16:19:50.744Z,82.2
2019-03-17T16:24:50.739Z,82.3
2019-03-17T16:29:50.748Z,83
2019-03-17T16:34:50.764Z,84.3
2019-03-17T16:39:50.729Z,83.3
2019-03-17T16:44:50.745Z,82.2
2019-03-17T16:49:50.724Z,82.8
2019-03-17T16:54:50.713Z,79.9
2019-03-17T16:59:50.684Z,77.2
2019-03-17T17:04:50.722Z,74.8
2019-03-17T17:09:50.702Z,73.9
2019-03-17T17:14:50.670Z,73.1
2019-03-17T17:19:50.710Z,72.9
2019-03-17T17:24:50.681Z,73.8
2019-03-17T17:29:50.698Z,75.8
2019-03-17T17:39:51.407Z,79.6
2019-03-17T17:44:51.465Z,76.7
2019-03-17T17:49:51.427Z,74.6
2019-03-17T17:54:51.418Z,73.4
2019-03-17T17:59:51.407Z,73.1
2019-03-17T18:04:51.371Z,72.5
2019-03-17T18:09:51.380Z,72.4
2019-03-17T18:14:51.406Z,78.3
2019-03-17T18:19:51.390Z,78
2019-03-17T18:24:51.372Z,77.2
2019-03-17T18:39:54.187Z,79
2019-03-17T18:44:54.187Z,80.1
2019-03-17T18:49:54.170Z,80.1
2019-03-17T18:54:54.150Z,81.1
2019-03-17T18:59:54.244Z,81.5
2019-03-17T19:04:54.146Z,81.5
2019-03-17T19:09:54.126Z,81.5
2019-03-17T19:14:54.148Z,77.7
2019-03-17T19:19:54.113Z,77.2
2019-03-17T19:24:54.110Z,77.1
2019-03-17T19:29:54.128Z,76.3
2019-03-17T19:34:54.133Z,77.1
2019-03-17T19:39:54.082Z,76.4
2019-03-17T19:44:54.124Z,73.9
2019-03-17T19:49:54.105Z,77.4
2019-03-17T19:54:54.105Z,80.2
2019-03-17T19:59:54.151Z,80.7
2019-03-17T20:04:54.082Z,81.9
2019-03-17T20:09:54.175Z,82.9
2019-03-17T20:14:54.125Z,83.3
2019-03-17T20:19:54.062Z,84.3
2019-03-17T20:29:54.095Z,85.2
2019-03-17T20:34:54.058Z,81.4
2019-03-17T20:39:54.364Z,78.2
2019-03-17T20:44:54.071Z,78.2
2019-03-17T20:49:54.083Z,77.4
2019-03-17T20:54:54.005Z,77.7
2019-03-17T21:19:54.822Z,83.5
2019-03-17T21:24:54.719Z,83.5
2019-03-17T21:29:54.695Z,84.3
2019-03-17T21:34:54.684Z,81.2
2019-03-17T21:39:54.741Z,78
2019-03-17T21:44:54.712Z,77.3
2019-03-17T21:49:54.703Z,76.7
2019-03-17T21:54:54.693Z,77.6
2019-03-17T21:59:54.700Z,77.7
2019-03-17T22:04:54.658Z,79.4
2019-03-17T22:09:54.726Z,81.1
2019-03-17T22:14:54.670Z,82.9
2019-03-17T22:19:54.636Z,83.6
2019-03-17T22:24:54.650Z,83.3
2019-03-17T22:29:54.648Z,79.8
2019-03-17T22:34:54.641Z,77.6
2019-03-17T22:39:54.627Z,76.9
2019-03-17T22:44:54.631Z,77.1
2019-03-17T22:49:54.646Z,77.2
2019-03-17T22:54:54.620Z,80.1
2019-03-17T22:59:54.698Z,81
2019-03-17T23:04:55.936Z,81.7
2019-03-17T23:09:54.679Z,82.4
2019-03-17T23:14:54.610Z,82.7
2019-03-17T23:19:54.597Z,82.3
2019-03-17T23:24:54.566Z,83.2
2019-03-17T23:29:54.591Z,82.8
2019-03-17T23:34:54.590Z,83.6
2019-03-17T23:39:54.586Z,79.3
2019-03-17T23:44:54.536Z,77
2019-03-17T23:49:54.578Z,79.3
2019-03-17T23:54:54.561Z,80.4
2019-03-17T23:59:54.518Z,81.2
